sensor_id;sensor_type;location;lat;lon;timestamp;P1;durP1;ratioP1;P2;durP2;ratioP2
49812;SDS011;35706;52.100;5.056;2023-04-01T00:00:58;29.52;;;6.55;;
49812;SDS011;35706;52.100;5.056;2023-04-01T00:02:00;22.10;;;8.00;;
49812;SDS011;35706;52.100;5.056;2023-04-01T00:03:00;31.88;;;8.20;;
49812;SDS011;35706;52.100;5.056;2023-04-01T00:04:00;31.27;;;8.52;;
49812;SDS011;35706;52.100;5.056;2023-04-01T00:05:02;25.35;;;7.72;;
49812;SDS011;35706;52.100;5.056;2023-04-01T00:06:02;31.90;;;8.73;;
49812;SDS011;35706;52.100;5.056;2023-04-01T00:07:03;30.80;;;9.07;;
49812;SDS011;35706;52.100;5.056;2023-04-01T00:08:03;41.40;;;9.98;;
49812;SDS011;35706;52.100;5.056;2023-04-01T00:09:03;34.00;;;9.23;;
49812;SDS011;35706;52.100;5.056;2023-04-01T00:10:05;33.95;;;9.57;;
49812;SDS011;35706;52.100;5.056;2023-04-01T00:11:07;38.67;;;10.00;;
49812;SDS011;35706;52.100;5.056;2023-04-01T00:12:08;29.90;;;10.00;;
49812;SDS011;35706;52.100;5.056;2023-04-01T00:13:08;32.33;;;9.13;;
49812;SDS011;35706;52.100;5.056;2023-04-01T00:14:09;42.30;;;11.05;;
49812;SDS011;35706;52.100;5.056;2023-04-01T00:15:10;33.75;;;10.88;;
49812;SDS011;35706;52.100;5.056;2023-04-01T00:16:12;41.88;;;11.85;;
49812;SDS011;35706;52.100;5.056;2023-04-01T00:17:13;38.60;;;11.25;;
49812;SDS011;35706;52.100;5.056;2023-04-01T00:18:13;29.75;;;10.52;;
49812;SDS011;35706;52.100;5.056;2023-04-01T00:19:13;38.28;;;13.20;;
49812;SDS011;35706;52.100;5.056;2023-04-01T00:20:15;37.83;;;12.40;;
49812;SDS011;35706;52.100;5.056;2023-04-01T00:21:15;34.15;;;12.30;;
49812;SDS011;35706;52.100;5.056;2023-04-01T00:22:17;37.90;;;12.80;;
49812;SDS011;35706;52.100;5.056;2023-04-01T00:23:18;44.58;;;13.05;;
49812;SDS011;35706;52.100;5.056;2023-04-01T00:24:19;45.15;;;12.95;;
49812;SDS011;35706;52.100;5.056;2023-04-01T00:25:19;44.78;;;13.85;;
49812;SDS011;35706;52.100;5.056;2023-04-01T00:26:20;40.33;;;13.13;;
49812;SDS011;35706;52.100;5.056;2023-04-01T00:27:21;40.72;;;13.30;;
49812;SDS011;35706;52.100;5.056;2023-04-01T00:28:21;37.95;;;13.85;;
49812;SDS011;35706;52.100;5.056;2023-04-01T00:29:22;36.63;;;12.98;;
49812;SDS011;35706;52.100;5.056;2023-04-01T00:30:24;36.78;;;13.80;;
49812;SDS011;35706;52.100;5.056;2023-04-01T00:31:24;40.78;;;14.27;;
49812;SDS011;35706;52.100;5.056;2023-04-01T00:32:24;43.88;;;14.77;;
49812;SDS011;35706;52.100;5.056;2023-04-01T00:33:28;41.22;;;14.73;;
49812;SDS011;35706;52.100;5.056;2023-04-01T00:34:30;41.30;;;14.98;;
49812;SDS011;35706;52.100;5.056;2023-04-01T00:35:30;41.85;;;15.55;;
49812;SDS011;35706;52.100;5.056;2023-04-01T00:36:32;35.08;;;12.98;;
49812;SDS011;35706;52.100;5.056;2023-04-01T00:37:34;33.05;;;13.07;;
49812;SDS011;35706;52.100;5.056;2023-04-01T00:38:37;28.48;;;12.85;;
49812;SDS011;35706;52.100;5.056;2023-04-01T00:39:38;34.75;;;13.57;;
49812;SDS011;35706;52.100;5.056;2023-04-01T00:40:40;34.22;;;14.18;;
49812;SDS011;35706;52.100;5.056;2023-04-01T00:41:42;39.88;;;13.50;;
49812;SDS011;35706;52.100;5.056;2023-04-01T00:42:42;40.63;;;14.52;;
49812;SDS011;35706;52.100;5.056;2023-04-01T00:43:43;41.70;;;15.10;;
49812;SDS011;35706;52.100;5.056;2023-04-01T00:44:47;37.08;;;14.82;;
49812;SDS011;35706;52.100;5.056;2023-04-01T00:45:51;31.67;;;13.27;;
49812;SDS011;35706;52.100;5.056;2023-04-01T00:46:51;41.13;;;14.52;;
49812;SDS011;35706;52.100;5.056;2023-04-01T00:47:55;39.78;;;13.15;;
49812;SDS011;35706;52.100;5.056;2023-04-01T00:48:58;40.38;;;13.52;;
49812;SDS011;35706;52.100;5.056;2023-04-01T00:50:00;28.27;;;11.23;;
49812;SDS011;35706;52.100;5.056;2023-04-01T00:51:05;31.90;;;10.82;;
49812;SDS011;35706;52.100;5.056;2023-04-01T00:52:17;24.48;;;8.57;;
49812;SDS011;35706;52.100;5.056;2023-04-01T00:53:20;25.35;;;9.80;;
49812;SDS011;35706;52.100;5.056;2023-04-01T00:54:22;28.52;;;10.55;;
49812;SDS011;35706;52.100;5.056;2023-04-01T00:55:25;32.10;;;10.55;;
49812;SDS011;35706;52.100;5.056;2023-04-01T00:56:30;27.23;;;10.90;;
49812;SDS011;35706;52.100;5.056;2023-04-01T00:57:35;32.47;;;11.40;;
49812;SDS011;35706;52.100;5.056;2023-04-01T00:58:38;27.52;;;10.38;;
49812;SDS011;35706;52.100;5.056;2023-04-01T00:59:43;22.50;;;9.93;;
49812;SDS011;35706;52.100;5.056;2023-04-01T01:00:47;23.50;;;10.02;;
49812;SDS011;35706;52.100;5.056;2023-04-01T01:01:50;27.83;;;8.65;;
49812;SDS011;35706;52.100;5.056;2023-04-01T01:02:51;19.55;;;8.73;;
49812;SDS011;35706;52.100;5.056;2023-04-01T01:03:52;27.77;;;9.38;;
49812;SDS011;35706;52.100;5.056;2023-04-01T01:04:52;21.20;;;8.68;;
49812;SDS011;35706;52.100;5.056;2023-04-01T01:06:03;18.98;;;6.85;;
49812;SDS011;35706;52.100;5.056;2023-04-01T01:08:54;20.98;;;7.25;;
49812;SDS011;35706;52.100;5.056;2023-04-01T01:10:08;20.50;;;6.97;;
49812;SDS011;35706;52.100;5.056;2023-04-01T01:11:17;20.35;;;6.82;;
49812;SDS011;35706;52.100;5.056;2023-04-01T01:12:33;20.70;;;6.72;;
49812;SDS011;35706;52.100;5.056;2023-04-01T01:13:46;25.98;;;7.43;;
49812;SDS011;35706;52.100;5.056;2023-04-01T01:16:30;24.52;;;7.57;;
49812;SDS011;35706;52.100;5.056;2023-04-01T01:24:05;15.70;;;6.25;;
49812;SDS011;35706;52.100;5.056;2023-04-01T01:25:18;17.88;;;5.78;;
49812;SDS011;35706;52.100;5.056;2023-04-01T01:27:47;19.13;;;6.32;;
49812;SDS011;35706;52.100;5.056;2023-04-01T01:29:07;21.23;;;6.30;;
49812;SDS011;35706;52.100;5.056;2023-04-01T01:35:43;16.40;;;4.97;;
49812;SDS011;35706;52.100;5.056;2023-04-01T01:36:45;18.63;;;5.00;;
49812;SDS011;35706;52.100;5.056;2023-04-01T01:37:54;12.75;;;5.10;;
49812;SDS011;35706;52.100;5.056;2023-04-01T01:38:59;18.90;;;5.55;;
49812;SDS011;35706;52.100;5.056;2023-04-01T01:40:03;17.88;;;4.97;;
49812;SDS011;35706;52.100;5.056;2023-04-01T01:41:06;18.08;;;4.80;;
49812;SDS011;35706;52.100;5.056;2023-04-01T01:42:09;21.73;;;5.35;;
49812;SDS011;35706;52.100;5.056;2023-04-01T01:43:15;22.38;;;5.53;;
49812;SDS011;35706;52.100;5.056;2023-04-01T01:44:19;14.35;;;4.53;;
49812;SDS011;35706;52.100;5.056;2023-04-01T01:45:21;13.88;;;5.07;;
49812;SDS011;35706;52.100;5.056;2023-04-01T01:46:26;16.25;;;4.75;;
49812;SDS011;35706;52.100;5.056;2023-04-01T01:47:29;15.60;;;4.03;;
49812;SDS011;35706;52.100;5.056;2023-04-01T01:48:30;21.20;;;4.85;;
49812;SDS011;35706;52.100;5.056;2023-04-01T01:49:32;16.85;;;4.55;;
49812;SDS011;35706;52.100;5.056;2023-04-01T01:50:35;17.77;;;4.50;;
49812;SDS011;35706;52.100;5.056;2023-04-01T01:51:37;13.90;;;4.05;;
49812;SDS011;35706;52.100;5.056;2023-04-01T01:52:39;18.60;;;4.25;;
49812;SDS011;35706;52.100;5.056;2023-04-01T01:53:39;17.33;;;3.78;;
49812;SDS011;35706;52.100;5.056;2023-04-01T01:54:53;18.05;;;4.72;;
49812;SDS011;35706;52.100;5.056;2023-04-01T01:55:54;19.77;;;5.28;;
49812;SDS011;35706;52.100;5.056;2023-04-01T01:57:08;12.82;;;4.35;;
49812;SDS011;35706;52.100;5.056;2023-04-01T01:58:12;15.68;;;4.55;;
49812;SDS011;35706;52.100;5.056;2023-04-01T01:59:18;13.40;;;3.63;;
49812;SDS011;35706;52.100;5.056;2023-04-01T02:00:21;16.75;;;3.38;;
49812;SDS011;35706;52.100;5.056;2023-04-01T02:01:25;23.00;;;4.97;;
49812;SDS011;35706;52.100;5.056;2023-04-01T02:02:29;15.18;;;4.25;;
49812;SDS011;35706;52.100;5.056;2023-04-01T02:03:33;14.45;;;3.55;;
49812;SDS011;35706;52.100;5.056;2023-04-01T02:04:39;14.75;;;3.15;;
49812;SDS011;35706;52.100;5.056;2023-04-01T02:05:43;12.23;;;2.97;;
49812;SDS011;35706;52.100;5.056;2023-04-01T02:06:46;14.63;;;3.53;;
49812;SDS011;35706;52.100;5.056;2023-04-01T02:07:57;16.50;;;3.33;;
49812;SDS011;35706;52.100;5.056;2023-04-01T02:09:01;11.00;;;2.55;;
49812;SDS011;35706;52.100;5.056;2023-04-01T02:10:03;13.13;;;2.45;;
49812;SDS011;35706;52.100;5.056;2023-04-01T02:11:13;11.50;;;2.20;;
49812;SDS011;35706;52.100;5.056;2023-04-01T02:12:19;20.45;;;3.35;;
49812;SDS011;35706;52.100;5.056;2023-04-01T02:13:24;18.70;;;3.08;;
49812;SDS011;35706;52.100;5.056;2023-04-01T02:14:39;14.43;;;3.08;;
49812;SDS011;35706;52.100;5.056;2023-04-01T02:15:44;17.30;;;3.55;;
49812;SDS011;35706;52.100;5.056;2023-04-01T02:16:49;15.75;;;3.15;;
49812;SDS011;35706;52.100;5.056;2023-04-01T02:18:00;18.30;;;4.13;;
49812;SDS011;35706;52.100;5.056;2023-04-01T02:19:02;12.98;;;3.17;;
49812;SDS011;35706;52.100;5.056;2023-04-01T02:20:15;14.57;;;3.38;;
49812;SDS011;35706;52.100;5.056;2023-04-01T02:21:19;13.93;;;3.28;;
49812;SDS011;35706;52.100;5.056;2023-04-01T02:22:28;15.43;;;3.38;;
49812;SDS011;35706;52.100;5.056;2023-04-01T02:23:34;17.05;;;4.50;;
49812;SDS011;35706;52.100;5.056;2023-04-01T02:24:36;16.38;;;4.20;;
49812;SDS011;35706;52.100;5.056;2023-04-01T02:25:38;21.52;;;3.88;;
49812;SDS011;35706;52.100;5.056;2023-04-01T02:26:41;8.88;;;2.90;;
49812;SDS011;35706;52.100;5.056;2023-04-01T02:27:43;15.48;;;4.03;;
49812;SDS011;35706;52.100;5.056;2023-04-01T02:28:45;9.68;;;3.50;;
49812;SDS011;35706;52.100;5.056;2023-04-01T02:29:46;12.65;;;2.85;;
49812;SDS011;35706;52.100;5.056;2023-04-01T02:30:47;13.50;;;2.63;;
49812;SDS011;35706;52.100;5.056;2023-04-01T02:31:49;9.98;;;2.85;;
49812;SDS011;35706;52.100;5.056;2023-04-01T02:32:51;14.93;;;2.65;;
49812;SDS011;35706;52.100;5.056;2023-04-01T02:33:52;13.75;;;2.60;;
49812;SDS011;35706;52.100;5.056;2023-04-01T02:34:53;8.88;;;2.47;;
49812;SDS011;35706;52.100;5.056;2023-04-01T02:35:54;10.05;;;1.88;;
49812;SDS011;35706;52.100;5.056;2023-04-01T02:36:54;4.97;;;1.50;;
49812;SDS011;35706;52.100;5.056;2023-04-01T02:37:56;8.35;;;1.80;;
49812;SDS011;35706;52.100;5.056;2023-04-01T02:38:57;5.10;;;1.65;;
49812;SDS011;35706;52.100;5.056;2023-04-01T02:40:02;7.50;;;1.83;;
49812;SDS011;35706;52.100;5.056;2023-04-01T02:41:06;6.80;;;1.38;;
49812;SDS011;35706;52.100;5.056;2023-04-01T02:42:06;7.53;;;1.50;;
49812;SDS011;35706;52.100;5.056;2023-04-01T02:43:07;4.38;;;1.90;;
49812;SDS011;35706;52.100;5.056;2023-04-01T02:44:08;5.07;;;1.38;;
49812;SDS011;35706;52.100;5.056;2023-04-01T02:45:09;4.53;;;1.30;;
49812;SDS011;35706;52.100;5.056;2023-04-01T02:46:10;11.30;;;1.52;;
49812;SDS011;35706;52.100;5.056;2023-04-01T02:47:10;7.28;;;1.48;;
49812;SDS011;35706;52.100;5.056;2023-04-01T02:48:11;5.07;;;1.63;;
49812;SDS011;35706;52.100;5.056;2023-04-01T02:49:12;6.75;;;1.95;;
49812;SDS011;35706;52.100;5.056;2023-04-01T02:50:12;5.38;;;2.20;;
49812;SDS011;35706;52.100;5.056;2023-04-01T02:51:13;6.43;;;2.03;;
49812;SDS011;35706;52.100;5.056;2023-04-01T02:52:13;5.53;;;2.10;;
49812;SDS011;35706;52.100;5.056;2023-04-01T02:53:13;5.72;;;2.08;;
49812;SDS011;35706;52.100;5.056;2023-04-01T02:54:14;7.95;;;2.15;;
49812;SDS011;35706;52.100;5.056;2023-04-01T02:55:14;6.38;;;2.03;;
49812;SDS011;35706;52.100;5.056;2023-04-01T02:56:15;7.25;;;2.30;;
49812;SDS011;35706;52.100;5.056;2023-04-01T02:57:15;6.57;;;2.47;;
49812;SDS011;35706;52.100;5.056;2023-04-01T02:58:16;9.85;;;2.63;;
49812;SDS011;35706;52.100;5.056;2023-04-01T02:59:16;8.93;;;2.83;;
49812;SDS011;35706;52.100;5.056;2023-04-01T03:00:17;6.43;;;3.10;;
49812;SDS011;35706;52.100;5.056;2023-04-01T03:01:17;7.80;;;2.70;;
49812;SDS011;35706;52.100;5.056;2023-04-01T03:02:18;8.70;;;3.17;;
49812;SDS011;35706;52.100;5.056;2023-04-01T03:03:18;7.80;;;4.47;;
49812;SDS011;35706;52.100;5.056;2023-04-01T03:04:18;8.77;;;3.85;;
49812;SDS011;35706;52.100;5.056;2023-04-01T03:05:19;9.40;;;4.47;;
49812;SDS011;35706;52.100;5.056;2023-04-01T03:06:19;11.30;;;4.15;;
49812;SDS011;35706;52.100;5.056;2023-04-01T03:07:20;9.32;;;4.28;;
49812;SDS011;35706;52.100;5.056;2023-04-01T03:08:20;13.05;;;5.43;;
49812;SDS011;35706;52.100;5.056;2023-04-01T03:09:20;11.20;;;4.72;;
49812;SDS011;35706;52.100;5.056;2023-04-01T03:10:21;11.82;;;4.53;;
49812;SDS011;35706;52.100;5.056;2023-04-01T03:11:21;12.55;;;5.32;;
49812;SDS011;35706;52.100;5.056;2023-04-01T03:12:22;10.60;;;5.15;;
49812;SDS011;35706;52.100;5.056;2023-04-01T03:13:23;14.20;;;5.78;;
49812;SDS011;35706;52.100;5.056;2023-04-01T03:14:23;11.77;;;5.10;;
49812;SDS011;35706;52.100;5.056;2023-04-01T03:15:23;15.05;;;6.28;;
49812;SDS011;35706;52.100;5.056;2023-04-01T03:16:24;13.38;;;5.97;;
49812;SDS011;35706;52.100;5.056;2023-04-01T03:17:24;14.40;;;5.63;;
49812;SDS011;35706;52.100;5.056;2023-04-01T03:18:25;13.43;;;5.68;;
49812;SDS011;35706;52.100;5.056;2023-04-01T03:19:25;13.82;;;6.70;;
49812;SDS011;35706;52.100;5.056;2023-04-01T03:20:25;12.88;;;6.43;;
49812;SDS011;35706;52.100;5.056;2023-04-01T03:21:25;11.95;;;5.55;;
49812;SDS011;35706;52.100;5.056;2023-04-01T03:22:26;12.90;;;5.45;;
49812;SDS011;35706;52.100;5.056;2023-04-01T03:23:26;17.27;;;6.20;;
49812;SDS011;35706;52.100;5.056;2023-04-01T03:24:26;17.10;;;6.68;;
49812;SDS011;35706;52.100;5.056;2023-04-01T03:25:27;13.98;;;6.13;;
49812;SDS011;35706;52.100;5.056;2023-04-01T03:26:28;14.43;;;6.07;;
49812;SDS011;35706;52.100;5.056;2023-04-01T03:27:28;14.40;;;6.18;;
49812;SDS011;35706;52.100;5.056;2023-04-01T03:28:29;14.52;;;6.70;;
49812;SDS011;35706;52.100;5.056;2023-04-01T03:29:29;21.60;;;6.70;;
49812;SDS011;35706;52.100;5.056;2023-04-01T03:30:30;14.32;;;6.57;;
49812;SDS011;35706;52.100;5.056;2023-04-01T03:31:31;14.50;;;6.47;;
49812;SDS011;35706;52.100;5.056;2023-04-01T03:32:31;12.20;;;6.68;;
49812;SDS011;35706;52.100;5.056;2023-04-01T03:33:31;16.58;;;7.10;;
49812;SDS011;35706;52.100;5.056;2023-04-01T03:34:32;17.83;;;7.30;;
49812;SDS011;35706;52.100;5.056;2023-04-01T03:35:32;15.30;;;6.82;;
49812;SDS011;35706;52.100;5.056;2023-04-01T03:36:33;14.02;;;6.40;;
49812;SDS011;35706;52.100;5.056;2023-04-01T03:37:33;12.23;;;6.32;;
49812;SDS011;35706;52.100;5.056;2023-04-01T03:38:34;16.85;;;6.00;;
49812;SDS011;35706;52.100;5.056;2023-04-01T03:39:35;14.00;;;5.97;;
49812;SDS011;35706;52.100;5.056;2023-04-01T03:40:35;12.88;;;5.32;;
49812;SDS011;35706;52.100;5.056;2023-04-01T03:41:38;10.20;;;5.38;;
49812;SDS011;35706;52.100;5.056;2023-04-01T03:42:38;10.20;;;4.53;;
49812;SDS011;35706;52.100;5.056;2023-04-01T03:43:38;13.63;;;5.38;;
49812;SDS011;35706;52.100;5.056;2023-04-01T03:44:39;12.60;;;5.30;;
49812;SDS011;35706;52.100;5.056;2023-04-01T03:45:50;14.40;;;5.75;;
49812;SDS011;35706;52.100;5.056;2023-04-01T03:46:51;10.40;;;5.10;;
49812;SDS011;35706;52.100;5.056;2023-04-01T03:47:51;12.18;;;5.95;;
49812;SDS011;35706;52.100;5.056;2023-04-01T03:48:51;11.98;;;5.88;;
49812;SDS011;35706;52.100;5.056;2023-04-01T03:49:52;10.75;;;6.05;;
49812;SDS011;35706;52.100;5.056;2023-04-01T03:50:52;17.38;;;6.40;;
49812;SDS011;35706;52.100;5.056;2023-04-01T03:51:52;11.88;;;6.05;;
49812;SDS011;35706;52.100;5.056;2023-04-01T03:52:53;12.43;;;6.47;;
49812;SDS011;35706;52.100;5.056;2023-04-01T03:53:53;13.88;;;6.72;;
49812;SDS011;35706;52.100;5.056;2023-04-01T03:54:53;19.33;;;6.85;;
49812;SDS011;35706;52.100;5.056;2023-04-01T03:55:54;14.05;;;6.43;;
49812;SDS011;35706;52.100;5.056;2023-04-01T03:56:55;11.15;;;6.32;;
49812;SDS011;35706;52.100;5.056;2023-04-01T03:57:57;13.23;;;6.30;;
49812;SDS011;35706;52.100;5.056;2023-04-01T03:58:58;13.10;;;7.07;;
49812;SDS011;35706;52.100;5.056;2023-04-01T04:00:01;12.82;;;7.07;;
49812;SDS011;35706;52.100;5.056;2023-04-01T04:01:02;15.15;;;7.25;;
49812;SDS011;35706;52.100;5.056;2023-04-01T04:02:02;12.73;;;6.32;;
49812;SDS011;35706;52.100;5.056;2023-04-01T04:03:03;14.35;;;6.88;;
49812;SDS011;35706;52.100;5.056;2023-04-01T04:04:03;15.18;;;7.50;;
49812;SDS011;35706;52.100;5.056;2023-04-01T04:05:04;16.27;;;6.28;;
49812;SDS011;35706;52.100;5.056;2023-04-01T04:06:10;15.45;;;7.25;;
49812;SDS011;35706;52.100;5.056;2023-04-01T04:07:11;15.68;;;7.13;;
49812;SDS011;35706;52.100;5.056;2023-04-01T04:08:12;14.05;;;6.80;;
49812;SDS011;35706;52.100;5.056;2023-04-01T04:09:12;14.10;;;7.35;;
49812;SDS011;35706;52.100;5.056;2023-04-01T04:10:12;14.65;;;7.03;;
49812;SDS011;35706;52.100;5.056;2023-04-01T04:11:13;14.15;;;6.78;;
49812;SDS011;35706;52.100;5.056;2023-04-01T04:12:14;15.60;;;6.80;;
49812;SDS011;35706;52.100;5.056;2023-04-01T04:13:14;15.45;;;6.97;;
49812;SDS011;35706;52.100;5.056;2023-04-01T04:14:15;12.77;;;6.60;;
49812;SDS011;35706;52.100;5.056;2023-04-01T04:15:15;12.13;;;5.47;;
49812;SDS011;35706;52.100;5.056;2023-04-01T04:16:16;13.73;;;6.10;;
49812;SDS011;35706;52.100;5.056;2023-04-01T04:17:17;10.65;;;5.35;;
49812;SDS011;35706;52.100;5.056;2023-04-01T04:18:17;14.40;;;5.80;;
49812;SDS011;35706;52.100;5.056;2023-04-01T04:19:18;10.18;;;5.47;;
49812;SDS011;35706;52.100;5.056;2023-04-01T04:20:18;13.90;;;6.18;;
49812;SDS011;35706;52.100;5.056;2023-04-01T04:21:18;9.77;;;5.65;;
49812;SDS011;35706;52.100;5.056;2023-04-01T04:22:19;11.23;;;5.30;;
49812;SDS011;35706;52.100;5.056;2023-04-01T04:23:19;9.40;;;5.10;;
49812;SDS011;35706;52.100;5.056;2023-04-01T04:24:20;12.73;;;5.47;;
49812;SDS011;35706;52.100;5.056;2023-04-01T04:25:20;7.85;;;4.57;;
49812;SDS011;35706;52.100;5.056;2023-04-01T04:26:20;8.10;;;4.30;;
49812;SDS011;35706;52.100;5.056;2023-04-01T04:27:20;11.35;;;4.90;;
49812;SDS011;35706;52.100;5.056;2023-04-01T04:28:21;12.13;;;5.40;;
49812;SDS011;35706;52.100;5.056;2023-04-01T04:29:21;8.80;;;5.15;;
49812;SDS011;35706;52.100;5.056;2023-04-01T04:30:22;11.60;;;5.30;;
49812;SDS011;35706;52.100;5.056;2023-04-01T04:31:23;10.05;;;5.22;;
49812;SDS011;35706;52.100;5.056;2023-04-01T04:32:25;9.90;;;5.10;;
49812;SDS011;35706;52.100;5.056;2023-04-01T04:33:25;14.52;;;5.90;;
49812;SDS011;35706;52.100;5.056;2023-04-01T04:34:25;10.40;;;4.65;;
49812;SDS011;35706;52.100;5.056;2023-04-01T04:35:26;11.27;;;5.78;;
49812;SDS011;35706;52.100;5.056;2023-04-01T04:36:26;12.73;;;5.78;;
49812;SDS011;35706;52.100;5.056;2023-04-01T04:37:27;11.93;;;5.32;;
49812;SDS011;35706;52.100;5.056;2023-04-01T04:38:27;10.93;;;6.22;;
49812;SDS011;35706;52.100;5.056;2023-04-01T04:39:28;12.30;;;5.63;;
49812;SDS011;35706;52.100;5.056;2023-04-01T04:40:29;11.13;;;5.57;;
49812;SDS011;35706;52.100;5.056;2023-04-01T04:41:29;11.75;;;5.15;;
49812;SDS011;35706;52.100;5.056;2023-04-01T04:42:29;14.40;;;6.10;;
49812;SDS011;35706;52.100;5.056;2023-04-01T04:43:29;11.02;;;6.15;;
49812;SDS011;35706;52.100;5.056;2023-04-01T04:44:30;10.60;;;5.97;;
49812;SDS011;35706;52.100;5.056;2023-04-01T04:45:30;11.73;;;5.78;;
49812;SDS011;35706;52.100;5.056;2023-04-01T04:46:31;13.82;;;6.00;;
49812;SDS011;35706;52.100;5.056;2023-04-01T04:47:32;11.70;;;5.70;;
49812;SDS011;35706;52.100;5.056;2023-04-01T04:48:32;12.73;;;6.55;;
49812;SDS011;35706;52.100;5.056;2023-04-01T04:49:32;11.15;;;6.30;;
49812;SDS011;35706;52.100;5.056;2023-04-01T04:50:34;13.13;;;6.72;;
49812;SDS011;35706;52.100;5.056;2023-04-01T04:51:34;15.45;;;6.13;;
49812;SDS011;35706;52.100;5.056;2023-04-01T04:52:35;12.15;;;6.18;;
49812;SDS011;35706;52.100;5.056;2023-04-01T04:53:36;13.38;;;6.38;;
49812;SDS011;35706;52.100;5.056;2023-04-01T04:54:36;14.85;;;6.75;;
49812;SDS011;35706;52.100;5.056;2023-04-01T04:55:36;10.77;;;5.90;;
49812;SDS011;35706;52.100;5.056;2023-04-01T04:56:36;16.30;;;6.40;;
49812;SDS011;35706;52.100;5.056;2023-04-01T04:57:37;13.95;;;6.15;;
49812;SDS011;35706;52.100;5.056;2023-04-01T04:58:37;14.90;;;6.88;;
49812;SDS011;35706;52.100;5.056;2023-04-01T04:59:38;11.23;;;6.63;;
49812;SDS011;35706;52.100;5.056;2023-04-01T05:00:39;14.18;;;7.22;;
49812;SDS011;35706;52.100;5.056;2023-04-01T05:01:39;13.55;;;6.95;;
49812;SDS011;35706;52.100;5.056;2023-04-01T05:02:40;13.18;;;6.45;;
49812;SDS011;35706;52.100;5.056;2023-04-01T05:03:41;12.80;;;6.47;;
49812;SDS011;35706;52.100;5.056;2023-04-01T05:04:41;14.02;;;7.43;;
49812;SDS011;35706;52.100;5.056;2023-04-01T05:05:47;15.23;;;7.30;;
49812;SDS011;35706;52.100;5.056;2023-04-01T05:06:52;12.85;;;6.75;;
49812;SDS011;35706;52.100;5.056;2023-04-01T05:07:52;12.45;;;7.15;;
49812;SDS011;35706;52.100;5.056;2023-04-01T05:08:52;12.05;;;6.35;;
49812;SDS011;35706;52.100;5.056;2023-04-01T05:09:53;13.63;;;7.05;;
49812;SDS011;35706;52.100;5.056;2023-04-01T05:10:53;15.40;;;7.60;;
49812;SDS011;35706;52.100;5.056;2023-04-01T05:11:53;15.55;;;7.20;;
49812;SDS011;35706;52.100;5.056;2023-04-01T05:12:54;14.20;;;6.95;;
49812;SDS011;35706;52.100;5.056;2023-04-01T05:13:54;11.25;;;6.80;;
49812;SDS011;35706;52.100;5.056;2023-04-01T05:14:55;12.93;;;7.13;;
49812;SDS011;35706;52.100;5.056;2023-04-01T05:15:55;12.23;;;6.85;;
49812;SDS011;35706;52.100;5.056;2023-04-01T05:16:56;12.57;;;6.25;;
49812;SDS011;35706;52.100;5.056;2023-04-01T05:17:56;13.32;;;7.07;;
49812;SDS011;35706;52.100;5.056;2023-04-01T05:18:56;14.73;;;7.53;;
49812;SDS011;35706;52.100;5.056;2023-04-01T05:19:57;13.88;;;7.93;;
49812;SDS011;35706;52.100;5.056;2023-04-01T05:20:57;11.18;;;6.53;;
49812;SDS011;35706;52.100;5.056;2023-04-01T05:21:57;10.95;;;6.78;;
49812;SDS011;35706;52.100;5.056;2023-04-01T05:22:58;15.35;;;7.80;;
49812;SDS011;35706;52.100;5.056;2023-04-01T05:23:59;18.80;;;8.05;;
49812;SDS011;35706;52.100;5.056;2023-04-01T05:24:59;15.90;;;7.93;;
49812;SDS011;35706;52.100;5.056;2023-04-01T05:26:06;14.32;;;7.00;;
49812;SDS011;35706;52.100;5.056;2023-04-01T05:27:08;13.50;;;6.63;;
49812;SDS011;35706;52.100;5.056;2023-04-01T05:28:09;11.60;;;6.68;;
49812;SDS011;35706;52.100;5.056;2023-04-01T05:29:09;12.90;;;7.43;;
49812;SDS011;35706;52.100;5.056;2023-04-01T05:30:10;13.57;;;6.68;;
49812;SDS011;35706;52.100;5.056;2023-04-01T05:31:11;16.25;;;7.78;;
49812;SDS011;35706;52.100;5.056;2023-04-01T05:32:11;12.40;;;7.18;;
49812;SDS011;35706;52.100;5.056;2023-04-01T05:33:12;9.45;;;5.70;;
49812;SDS011;35706;52.100;5.056;2023-04-01T05:34:13;10.77;;;5.93;;
49812;SDS011;35706;52.100;5.056;2023-04-01T05:35:13;10.98;;;5.90;;
49812;SDS011;35706;52.100;5.056;2023-04-01T05:36:14;14.95;;;6.20;;
49812;SDS011;35706;52.100;5.056;2023-04-01T05:37:16;12.55;;;6.40;;
49812;SDS011;35706;52.100;5.056;2023-04-01T05:38:16;11.25;;;6.22;;
49812;SDS011;35706;52.100;5.056;2023-04-01T05:39:16;11.70;;;6.35;;
49812;SDS011;35706;52.100;5.056;2023-04-01T05:40:17;13.55;;;6.93;;
49812;SDS011;35706;52.100;5.056;2023-04-01T05:41:17;11.35;;;6.38;;
49812;SDS011;35706;52.100;5.056;2023-04-01T05:42:17;12.65;;;5.57;;
49812;SDS011;35706;52.100;5.056;2023-04-01T05:43:18;10.88;;;6.40;;
49812;SDS011;35706;52.100;5.056;2023-04-01T05:44:18;9.98;;;6.15;;
49812;SDS011;35706;52.100;5.056;2023-04-01T05:45:18;12.00;;;6.30;;
49812;SDS011;35706;52.100;5.056;2023-04-01T05:46:18;15.77;;;6.50;;
49812;SDS011;35706;52.100;5.056;2023-04-01T05:47:19;14.93;;;6.93;;
49812;SDS011;35706;52.100;5.056;2023-04-01T05:48:19;12.73;;;6.68;;
49812;SDS011;35706;52.100;5.056;2023-04-01T05:49:20;15.13;;;6.38;;
49812;SDS011;35706;52.100;5.056;2023-04-01T05:50:20;14.07;;;5.97;;
49812;SDS011;35706;52.100;5.056;2023-04-01T05:51:20;13.38;;;6.43;;
49812;SDS011;35706;52.100;5.056;2023-04-01T05:52:21;9.13;;;5.65;;
49812;SDS011;35706;52.100;5.056;2023-04-01T05:53:21;11.63;;;6.57;;
49812;SDS011;35706;52.100;5.056;2023-04-01T05:54:22;11.65;;;6.38;;
49812;SDS011;35706;52.100;5.056;2023-04-01T05:55:22;13.43;;;6.22;;
49812;SDS011;35706;52.100;5.056;2023-04-01T05:56:23;13.32;;;7.03;;
49812;SDS011;35706;52.100;5.056;2023-04-01T05:57:23;15.73;;;6.85;;
49812;SDS011;35706;52.100;5.056;2023-04-01T05:58:23;15.52;;;7.18;;
49812;SDS011;35706;52.100;5.056;2023-04-01T05:59:23;12.10;;;6.18;;
49812;SDS011;35706;52.100;5.056;2023-04-01T06:00:24;18.02;;;6.90;;
49812;SDS011;35706;52.100;5.056;2023-04-01T06:01:24;12.82;;;6.93;;
49812;SDS011;35706;52.100;5.056;2023-04-01T06:02:25;14.15;;;7.22;;
49812;SDS011;35706;52.100;5.056;2023-04-01T06:03:25;14.93;;;7.45;;
49812;SDS011;35706;52.100;5.056;2023-04-01T06:04:26;13.80;;;6.65;;
49812;SDS011;35706;52.100;5.056;2023-04-01T06:05:39;17.58;;;7.35;;
49812;SDS011;35706;52.100;5.056;2023-04-01T06:06:42;18.95;;;7.82;;
49812;SDS011;35706;52.100;5.056;2023-04-01T06:07:42;19.55;;;7.85;;
49812;SDS011;35706;52.100;5.056;2023-04-01T06:08:43;12.43;;;7.15;;
49812;SDS011;35706;52.100;5.056;2023-04-01T06:09:43;18.45;;;7.80;;
49812;SDS011;35706;52.100;5.056;2023-04-01T06:13:11;17.90;;;7.30;;
49812;SDS011;35706;52.100;5.056;2023-04-01T06:30:10;17.00;;;7.35;;
49812;SDS011;35706;52.100;5.056;2023-04-01T06:32:58;16.95;;;7.80;;
49812;SDS011;35706;52.100;5.056;2023-04-01T06:39:38;33.35;;;11.40;;
49812;SDS011;35706;52.100;5.056;2023-04-01T06:41:15;25.77;;;12.68;;
49812;SDS011;35706;52.100;5.056;2023-04-01T06:42:38;26.55;;;12.25;;
49812;SDS011;35706;52.100;5.056;2023-04-01T06:46:19;28.83;;;14.52;;
49812;SDS011;35706;52.100;5.056;2023-04-01T06:47:50;34.80;;;15.55;;
49812;SDS011;35706;52.100;5.056;2023-04-01T06:50:37;34.65;;;16.10;;
49812;SDS011;35706;52.100;5.056;2023-04-01T06:55:01;32.28;;;15.70;;
49812;SDS011;35706;52.100;5.056;2023-04-01T06:56:17;37.13;;;16.70;;
49812;SDS011;35706;52.100;5.056;2023-04-01T06:57:29;41.97;;;16.33;;
49812;SDS011;35706;52.100;5.056;2023-04-01T06:58:35;41.80;;;17.63;;
49812;SDS011;35706;52.100;5.056;2023-04-01T06:59:42;40.95;;;16.88;;